Time;durP1;ratioP1;P1;durP2;ratioP2;P2;SDS_P1;SDS_P2;PMS_P1;PMS_P2;Temp;Humidity;BMP_temperature;BMP_pressure;BME280_temperature;BME280_humidity;BME280_pressure;Samples;Min_cycle;Max_cycle;Signal;HPM_P1;HPM_P2
2021/12/30 00:01:05;;;;;;;0.53;0.50;;;;;;;12.33;100.00;97937.69;5102435;28;20216;-68
2021/12/30 00:03:32;;;;;;;0.60;0.60;;;;;;;12.30;100.00;97953.00;5104614;28;20217;-68
2021/12/30 00:05:58;;;;;;;1.27;0.60;;;;;;;12.27;100.00;97947.94;5101033;28;20225;-68
2021/12/30 00:08:25;;;;;;;1.03;0.60;;;;;;;12.27;100.00;97955.88;5100712;28;20234;-68
2021/12/30 00:10:53;;;;;;;0.87;0.53;;;;;;;12.20;100.00;97966.13;5100535;28;20220;-68
2021/12/30 00:13:21;;;;;;;0.77;0.67;;;;;;;12.20;100.00;97973.22;5098049;28;20224;-68
2021/12/30 00:15:49;;;;;;;2.00;0.70;;;;;;;12.15;100.00;97975.38;5095964;28;20222;-69
2021/12/30 00:18:16;;;;;;;2.40;0.90;;;;;;;12.17;100.00;97984.06;5098330;28;20212;-68
2021/12/30 00:20:42;;;;;;;0.60;0.50;;;;;;;12.24;100.00;97993.22;5100372;28;20221;-69
2021/12/30 00:23:10;;;;;;;1.43;0.80;;;;;;;12.30;100.00;98006.00;5097571;28;20672;-69
2021/12/30 00:25:40;;;;;;;2.20;0.70;;;;;;;12.39;100.00;98006.13;5097712;28;20665;-69
2021/12/30 00:28:09;;;;;;;1.33;0.80;;;;;;;12.50;100.00;98013.22;5098166;28;20238;-69
2021/12/30 00:30:36;;;;;;;0.93;0.70;;;;;;;12.53;100.00;98020.94;5099690;28;20246;-69
2021/12/30 00:33:04;;;;;;;1.20;0.63;;;;;;;12.54;100.00;98019.97;5097748;28;20214;-70
2021/12/30 00:35:32;;;;;;;1.67;1.10;;;;;;;12.56;100.00;98028.66;5103455;28;20211;-70
2021/12/30 00:37:59;;;;;;;2.60;0.97;;;;;;;12.59;100.00;98031.06;5098112;28;20257;-69
2021/12/30 00:40:25;;;;;;;1.73;0.80;;;;;;;12.58;100.00;98029.38;5099508;28;20208;-69
2021/12/30 00:42:52;;;;;;;1.63;0.83;;;;;;;12.60;100.00;98035.41;5095729;28;20213;-70
2021/12/30 00:45:20;;;;;;;3.13;0.90;;;;;;;12.55;100.00;98037.56;5097453;28;20223;-69
2021/12/30 00:47:46;;;;;;;1.40;0.80;;;;;;;12.50;100.00;98031.78;5096835;28;20607;-70
2021/12/30 00:50:14;;;;;;;1.40;0.80;;;;;;;12.40;100.00;98033.47;5099481;28;20219;-70
2021/12/30 00:52:41;;;;;;;2.20;1.17;;;;;;;12.27;100.00;98028.28;5097445;28;20570;-69
2021/12/30 00:55:08;;;;;;;1.50;0.80;;;;;;;12.24;100.00;98032.97;5097166;28;20223;-70
2021/12/30 00:57:35;;;;;;;3.43;1.10;;;;;;;12.15;100.00;98034.53;5096942;28;20695;-70
2021/12/30 01:00:03;;;;;;;3.07;0.90;;;;;;;12.16;100.00;98036.19;5099623;28;20219;-70
2021/12/30 01:02:30;;;;;;;1.13;0.80;;;;;;;12.09;100.00;98047.38;5096816;28;20671;-70
2021/12/30 01:04:56;;;;;;;1.30;0.90;;;;;;;12.00;100.00;98045.44;5096715;28;20222;-70
2021/12/30 01:07:24;;;;;;;1.80;0.90;;;;;;;11.98;100.00;98044.72;5096705;28;20234;-70
2021/12/30 01:09:51;;;;;;;1.67;0.97;;;;;;;11.98;100.00;98050.03;5097203;28;20219;-71
2021/12/30 01:12:18;;;;;;;3.13;1.00;;;;;;;11.97;100.00;98051.81;5096799;28;20216;-70
2021/12/30 01:14:47;;;;;;;2.50;1.00;;;;;;;12.01;100.00;98055.94;5097088;28;20215;-70
2021/12/30 01:17:19;;;;;;;1.67;0.70;;;;;;;12.03;100.00;98066.38;5096831;28;20249;-70
2021/12/30 01:19:45;;;;;;;1.57;0.80;;;;;;;12.11;100.00;98069.31;5101406;28;20254;-70
2021/12/30 01:22:15;;;;;;;1.63;1.10;;;;;;;12.12;100.00;98076.31;5103082;28;20215;-70
2021/12/30 01:24:44;;;;;;;3.63;1.00;;;;;;;12.11;100.00;98069.31;5099665;28;20211;-70
2021/12/30 01:27:11;;;;;;;1.00;0.80;;;;;;;12.17;100.00;98068.84;5099044;28;20243;-70
2021/12/30 01:29:37;;;;;;;1.23;0.73;;;;;;;12.21;100.00;98075.59;5101177;28;20237;-71
2021/12/30 01:32:04;;;;;;;1.10;0.73;;;;;;;12.28;100.00;98077.66;5102507;28;20256;-70
2021/12/30 01:34:32;;;;;;;1.13;0.80;;;;;;;12.30;100.00;98090.78;5097713;28;20207;-71
2021/12/30 01:37:01;;;;;;;1.73;0.80;;;;;;;12.32;100.00;98088.88;5099018;28;20210;-71
2021/12/30 01:39:29;;;;;;;2.37;0.83;;;;;;;12.23;100.00;98084.28;5101011;28;20271;-71
2021/12/30 01:41:58;;;;;;;0.70;0.70;;;;;;;12.19;100.00;98080.16;5102250;28;20216;-71
2021/12/30 01:44:24;;;;;;;1.00;0.80;;;;;;;12.16;100.00;98091.03;5099243;28;20240;-72
2021/12/30 01:46:52;;;;;;;1.40;0.73;;;;;;;12.19;100.00;98104.00;5099104;28;20221;-71
2021/12/30 01:49:19;;;;;;;1.43;0.83;;;;;;;12.20;100.00;98106.56;5106080;28;20222;-72
2021/12/30 01:51:46;;;;;;;1.30;0.90;;;;;;;12.22;100.00;98106.44;5096275;28;20206;-72
2021/12/30 01:54:13;;;;;;;3.50;1.40;;;;;;;12.17;100.00;98120.03;5096255;28;20575;-72
2021/12/30 01:56:39;;;;;;;1.50;0.97;;;;;;;12.18;100.00;98128.81;5096608;28;20591;-72
2021/12/30 01:59:08;;;;;;;1.17;1.00;;;;;;;12.17;100.00;98122.66;5097809;28;20213;-72
2021/12/30 02:01:35;;;;;;;1.63;0.93;;;;;;;12.09;100.00;98129.50;5094090;28;20219;-72
2021/12/30 02:04:02;;;;;;;2.57;0.90;;;;;;;12.08;100.00;98138.41;5096068;28;20215;-73
2021/12/30 02:06:28;;;;;;;1.37;0.70;;;;;;;11.98;100.00;98132.97;5096371;28;20214;-72
2021/12/30 02:08:55;;;;;;;4.87;1.10;;;;;;;11.93;100.00;98140.41;5101605;28;20233;-72
2021/12/30 02:11:22;;;;;;;2.50;0.90;;;;;;;11.86;100.00;98144.47;5101297;28;20227;-72
2021/12/30 02:13:50;;;;;;;3.10;0.90;;;;;;;11.89;100.00;98156.66;5105001;28;20214;-72
2021/12/30 02:16:20;;;;;;;1.13;0.70;;;;;;;11.84;100.00;98146.41;5104585;28;20218;-72
2021/12/30 02:18:46;;;;;;;2.03;0.83;;;;;;;11.78;100.00;98159.22;5101184;28;20240;-72
2021/12/30 02:21:14;;;;;;;2.77;0.90;;;;;;;11.78;100.00;98161.88;5101522;28;20227;-73
2021/12/30 02:23:41;;;;;;;2.93;1.00;;;;;;;11.87;100.00;98166.50;5105260;28;20214;-72
2021/12/30 02:26:09;;;;;;;3.00;0.97;;;;;;;11.88;100.00;98169.06;5103026;28;20555;-73
2021/12/30 02:28:38;;;;;;;2.50;1.00;;;;;;;11.97;100.00;98171.00;5101253;28;20234;-73
2021/12/30 02:31:08;;;;;;;1.80;0.80;;;;;;;12.02;100.00;98175.97;5101381;28;20272;-72
2021/12/30 02:33:34;;;;;;;0.97;0.70;;;;;;;12.07;100.00;98184.41;5105338;28;20236;-72
2021/12/30 02:36:01;;;;;;;2.47;0.90;;;;;;;12.11;100.00;98178.78;5104098;28;20213;-72
2021/12/30 02:38:29;;;;;;;0.67;0.67;;;;;;;12.16;100.00;98183.75;5100933;28;20595;-72
2021/12/30 02:40:58;;;;;;;1.43;0.80;;;;;;;12.15;100.00;98180.25;5101606;28;20215;-72
2021/12/30 02:43:27;;;;;;;1.53;1.00;;;;;;;12.11;100.00;98175.28;5105006;28;20216;-72
2021/12/30 02:45:55;;;;;;;0.87;0.80;;;;;;;11.99;100.00;98184.16;5103282;28;20208;-72
2021/12/30 02:48:24;;;;;;;2.10;1.00;;;;;;;11.94;100.00;98186.28;5100818;28;20567;-71
2021/12/30 02:50:54;;;;;;;1.03;0.80;;;;;;;11.84;100.00;98180.81;5102549;28;20226;-72
2021/12/30 02:53:21;;;;;;;1.53;0.87;;;;;;;11.88;100.00;98184.09;5102935;28;20590;-71
2021/12/30 02:55:53;;;;;;;1.10;0.90;;;;;;;11.95;100.00;98190.63;5102909;28;20210;-72
2021/12/30 02:58:20;;;;;;;4.40;1.00;;;;;;;11.99;100.00;98192.09;5100776;28;20284;-72
2021/12/30 03:00:48;;;;;;;1.87;0.90;;;;;;;12.05;100.00;98197.78;5103068;28;20210;-72
2021/12/30 03:03:19;;;;;;;2.67;1.43;;;;;;;12.15;100.00;98203.22;5104549;28;20240;-72
2021/12/30 03:05:45;;;;;;;1.43;0.50;;;;;;;12.26;100.00;98200.63;5098705;28;20687;-72
2021/12/30 03:08:12;;;;;;;1.70;0.73;;;;;;;12.27;100.00;98203.19;5094430;28;20237;-72
2021/12/30 03:10:38;;;;;;;1.33;0.80;;;;;;;12.30;100.00;98207.41;5103459;28;20217;-73
2021/12/30 03:13:08;;;;;;;1.00;0.70;;;;;;;12.37;100.00;98203.31;5108483;28;20680;-72
2021/12/30 03:15:35;;;;;;;1.40;0.80;;;;;;;12.40;100.00;98208.41;5105480;28;20226;-72
2021/12/30 03:18:02;;;;;;;0.87;0.70;;;;;;;12.45;100.00;98207.09;5102561;28;20682;-72
2021/12/30 03:20:32;;;;;;;1.77;0.70;;;;;;;12.39;100.00;98206.69;5106694;28;20683;-72
2021/12/30 03:22:59;;;;;;;1.83;0.80;;;;;;;12.32;100.00;98216.06;5108152;28;20218;-72
2021/12/30 03:25:25;;;;;;;2.33;0.80;;;;;;;12.33;100.00;98215.09;5105317;28;20225;-72
2021/12/30 03:27:52;;;;;;;1.57;0.70;;;;;;;12.27;100.00;98223.50;5104475;28;20607;-72
2021/12/30 03:30:19;;;;;;;2.33;0.80;;;;;;;12.26;100.00;98222.69;5106366;28;20243;-72
2021/12/30 03:32:46;;;;;;;0.90;0.60;;;;;;;12.17;100.00;98228.66;5107722;28;20211;-72
2021/12/30 03:35:13;;;;;;;1.80;0.70;;;;;;;12.16;100.00;98231.44;5105416;28;20208;-72
2021/12/30 03:37:40;;;;;;;1.43;0.80;;;;;;;12.25;100.00;98226.31;5104207;28;20207;-72
2021/12/30 03:40:11;;;;;;;0.80;0.70;;;;;;;12.34;100.00;98236.22;5106219;28;20217;-72
2021/12/30 03:42:38;;;;;;;3.30;1.00;;;;;;;12.41;100.00;98241.91;5107429;28;20681;-72
2021/12/30 03:45:07;;;;;;;0.90;0.67;;;;;;;12.47;100.00;98239.63;5103185;28;20215;-72
2021/12/30 03:47:37;;;;;;;0.87;0.63;;;;;;;12.53;100.00;98241.00;5103817;28;20221;-72
2021/12/30 03:50:05;;;;;;;0.73;0.60;;;;;;;12.54;100.00;98242.69;5106967;28;20637;-72
2021/12/30 03:52:31;;;;;;;0.80;0.70;;;;;;;12.58;100.00;98241.47;5107496;28;20224;-72
2021/12/30 03:54:58;;;;;;;1.60;0.80;;;;;;;12.58;100.00;98244.13;5104275;28;20239;-72
2021/12/30 03:57:25;;;;;;;0.70;0.50;;;;;;;12.62;100.00;98246.44;5103779;28;20212;-72
2021/12/30 03:59:51;;;;;;;1.13;0.67;;;;;;;12.64;100.00;98251.59;5106587;28;20225;-72
2021/12/30 04:02:18;;;;;;;1.17;0.57;;;;;;;12.70;100.00;98253.78;5107056;28;20226;-72
2021/12/30 04:04:46;;;;;;;0.50;0.50;;;;;;;12.71;100.00;98266.13;5104331;28;20216;-72
2021/12/30 04:07:12;;;;;;;0.87;0.83;;;;;;;12.73;100.00;98258.88;5103607;28;20222;-72
2021/12/30 04:09:39;;;;;;;1.17;0.80;;;;;;;12.73;100.00;98250.94;5098323;28;20245;-72
2021/12/30 04:12:06;;;;;;;0.77;0.60;;;;;;;12.75;100.00;98267.56;5097922;28;20215;-72
2021/12/30 04:14:32;;;;;;;1.00;0.70;;;;;;;12.72;100.00;98270.47;5100707;28;20217;-72
2021/12/30 04:16:59;;;;;;;1.37;0.63;;;;;;;12.75;100.00;98272.88;5098226;28;20217;-72
2021/12/30 04:19:26;;;;;;;0.50;0.40;;;;;;;12.83;100.00;98275.81;5098219;28;20214;-72
2021/12/30 04:21:56;;;;;;;0.83;0.63;;;;;;;12.82;100.00;98282.03;5097939;28;20217;-72
2021/12/30 04:24:22;;;;;;;0.50;0.50;;;;;;;12.85;100.00;98284.47;5099424;28;20248;-72
2021/12/30 04:26:50;;;;;;;2.53;0.80;;;;;;;12.71;100.00;98282.03;5098005;28;20219;-72
2021/12/30 04:29:18;;;;;;;1.17;0.60;;;;;;;12.69;100.00;98278.63;5097284;28;20241;-72
2021/12/30 04:31:45;;;;;;;0.43;0.40;;;;;;;12.65;100.00;98282.50;5097829;28;20211;-72
2021/12/30 04:34:11;;;;;;;0.57;0.50;;;;;;;12.59;100.00;98288.25;5099885;28;20216;-72
2021/12/30 04:36:38;;;;;;;0.60;0.60;;;;;;;12.52;100.00;98290.50;5096127;28;20222;-71
2021/12/30 04:39:06;;;;;;;1.47;0.73;;;;;;;12.49;100.00;98298.69;5097718;28;20632;-71
2021/12/30 04:41:32;;;;;;;1.00;0.87;;;;;;;12.43;100.00;98298.28;5097314;28;20208;-71
2021/12/30 04:43:59;;;;;;;0.97;0.60;;;;;;;12.41;100.00;98302.88;5099585;28;20217;-71
2021/12/30 04:46:26;;;;;;;0.60;0.60;;;;;;;12.32;100.00;98304.38;5097641;28;20681;-71
2021/12/30 04:48:52;;;;;;;0.60;0.60;;;;;;;12.27;100.00;98301.22;5097011;28;20248;-71
2021/12/30 04:51:19;;;;;;;1.07;0.70;;;;;;;12.30;100.00;98310.75;5097151;28;20220;-71
2021/12/30 04:53:47;;;;;;;0.70;0.53;;;;;;;12.31;100.00;98312.44;5098904;28;20215;-71
2021/12/30 04:56:15;;;;;;;0.40;0.40;;;;;;;12.32;100.00;98307.03;5098148;28;20222;-71
2021/12/30 04:58:42;;;;;;;0.97;0.50;;;;;;;12.32;100.00;98307.03;5096868;28;20677;-71
2021/12/30 05:01:08;;;;;;;1.13;0.50;;;;;;;12.28;100.00;98310.88;5096933;28;20216;-71
2021/12/30 05:03:35;;;;;;;0.90;0.60;;;;;;;12.29;100.00;98311.72;5096909;28;20210;-71
2021/12/30 05:06:01;;;;;;;0.80;0.53;;;;;;;12.29;100.00;98317.84;5097858;28;20666;-71
2021/12/30 05:08:28;;;;;;;0.77;0.50;;;;;;;12.30;100.00;98318.72;5097329;28;20601;-72
2021/12/30 05:10:55;;;;;;;0.57;0.50;;;;;;;12.28;100.00;98318.00;5106086;28;20298;-71
2021/12/30 05:13:23;;;;;;;1.70;0.77;;;;;;;12.28;100.00;98304.75;5104956;28;20210;-71
2021/12/30 05:15:49;;;;;;;0.63;0.60;;;;;;;12.24;100.00;98312.03;5101788;28;20207;-71
2021/12/30 05:18:18;;;;;;;1.00;0.60;;;;;;;12.23;100.00;98317.47;5102322;28;20222;-71
2021/12/30 05:20:45;;;;;;;0.80;0.73;;;;;;;12.20;100.00;98317.69;5105498;28;20216;-71
2021/12/30 05:23:12;;;;;;;1.00;0.70;;;;;;;12.18;100.00;98322.25;5104413;28;20215;-71
2021/12/30 05:25:39;;;;;;;0.83;0.70;;;;;;;12.17;100.00;98328.50;5101624;28;20222;-72
2021/12/30 05:28:05;;;;;;;0.67;0.60;;;;;;;12.15;100.00;98331.25;5100403;28;20679;-71
2021/12/30 05:30:33;;;;;;;0.97;0.70;;;;;;;12.15;100.00;98327.75;5105783;28;20242;-71
2021/12/30 05:32:59;;;;;;;0.93;0.60;;;;;;;12.10;100.00;98332.56;5104924;28;20212;-71
2021/12/30 05:35:26;;;;;;;0.60;0.60;;;;;;;12.09;100.00;98331.72;5102051;28;20224;-71
2021/12/30 05:37:53;;;;;;;1.17;0.60;;;;;;;12.10;100.00;98337.88;5103192;28;20217;-71
2021/12/30 05:40:21;;;;;;;0.70;0.70;;;;;;;12.10;100.00;98335.22;5099161;28;20245;-71
2021/12/30 05:42:49;;;;;;;0.53;0.53;;;;;;;12.09;100.00;98336.16;5099195;28;20585;-71
2021/12/30 05:45:17;;;;;;;0.60;0.60;;;;;;;12.08;100.00;98339.75;5100861;28;20710;-71
2021/12/30 05:47:47;;;;;;;0.50;0.50;;;;;;;12.07;100.00;98346.03;5102794;28;20212;-71
2021/12/30 05:50:16;;;;;;;1.33;0.60;;;;;;;12.06;100.00;98346.97;5099227;28;20249;-71
2021/12/30 05:52:42;;;;;;;0.90;0.70;;;;;;;12.02;100.00;98350.78;5099010;28;20217;-71
2021/12/30 05:55:09;;;;;;;0.63;0.60;;;;;;;12.01;100.00;98354.41;5099582;28;20214;-71
2021/12/30 05:57:36;;;;;;;0.70;0.60;;;;;;;12.00;100.00;98358.00;5102552;28;20217;-71
2021/12/30 06:00:05;;;;;;;0.73;0.50;;;;;;;11.98;100.00;98362.59;5099466;28;20224;-70
2021/12/30 06:02:32;;;;;;;1.20;0.53;;;;;;;12.03;100.00;98365.72;5099270;28;20212;-70
2021/12/30 06:05:00;;;;;;;0.73;0.67;;;;;;;11.98;100.00;98359.94;5101458;28;20226;-69
2021/12/30 06:07:26;;;;;;;0.47;0.47;;;;;;;11.96;100.00;98367.13;5102319;28;20231;-69
2021/12/30 06:09:53;;;;;;;0.70;0.70;;;;;;;11.90;100.00;98376.38;5095991;28;20226;-69
2021/12/30 06:12:19;;;;;;;0.50;0.50;;;;;;;11.93;100.00;98368.19;5096701;28;20212;-69
2021/12/30 06:14:46;;;;;;;0.47;0.47;;;;;;;11.96;100.00;98372.41;5099433;28;20217;-69
2021/12/30 06:17:14;;;;;;;0.77;0.57;;;;;;;11.97;100.00;98379.41;5105063;28;20588;-69
2021/12/30 06:19:42;;;;;;;0.73;0.60;;;;;;;11.94;100.00;98377.84;5103161;28;20760;-69
2021/12/30 06:22:10;;;;;;;0.60;0.60;;;;;;;11.92;100.00;98371.78;5104135;28;20270;-69
2021/12/30 06:24:37;;;;;;;0.60;0.60;;;;;;;11.93;100.00;98381.44;5100867;28;20677;-69
2021/12/30 06:27:04;;;;;;;0.83;0.53;;;;;;;11.93;100.00;98380.59;5101530;28;20219;-69
2021/12/30 06:29:30;;;;;;;0.60;0.60;;;;;;;11.91;100.00;98371.91;5104541;28;20239;-68
2021/12/30 06:31:57;;;;;;;0.90;0.70;;;;;;;11.91;100.00;98374.53;5104420;28;20214;-68
2021/12/30 06:34:23;;;;;;;0.97;0.70;;;;;;;11.88;100.00;98370.34;5100683;28;20696;-68
2021/12/30 06:36:50;;;;;;;0.80;0.60;;;;;;;11.89;100.00;98379.13;5100971;28;20218;-69
2021/12/30 06:39:18;;;;;;;0.77;0.50;;;;;;;11.87;100.00;98394.28;5104350;28;20705;-69
2021/12/30 06:41:44;;;;;;;0.50;0.50;;;;;;;11.88;100.00;98380.06;5104505;28;20214;-69
2021/12/30 06:44:11;;;;;;;1.30;0.80;;;;;;;11.88;100.00;98390.66;5099697;28;20232;-70
2021/12/30 06:46:38;;;;;;;0.83;0.63;;;;;;;11.87;100.00;98389.81;5102037;28;20222;-69
2021/12/30 06:49:08;;;;;;;0.73;0.57;;;;;;;11.87;100.00;98400.41;5106324;28;20249;-68
2021/12/30 06:51:35;;;;;;;0.63;0.60;;;;;;;11.90;100.00;98392.25;5109121;28;20221;-68
2021/12/30 06:54:02;;;;;;;0.60;0.50;;;;;;;11.96;100.00;98404.22;5103687;28;20214;-69
2021/12/30 06:56:30;;;;;;;0.40;0.40;;;;;;;11.95;100.00;98403.38;5106469;28;20213;-69
2021/12/30 06:58:56;;;;;;;1.10;0.53;;;;;;;11.94;100.00;98398.19;5102674;28;20210;-69
2021/12/30 07:01:23;;;;;;;0.70;0.70;;;;;;;11.95;100.00;98402.53;5102521;28;21274;-69
2021/12/30 07:03:50;;;;;;;0.60;0.60;;;;;;;11.95;100.00;98402.53;5103412;28;20692;-69
2021/12/30 07:06:16;;;;;;;0.80;0.70;;;;;;;11.94;100.00;98408.78;5106352;28;20212;-69
2021/12/30 07:08:43;;;;;;;0.70;0.70;;;;;;;11.92;100.00;98414.19;5097036;28;20649;-69
2021/12/30 07:11:09;;;;;;;1.10;0.77;;;;;;;11.94;100.00;98417.59;5099293;28;20235;-69
2021/12/30 07:13:37;;;;;;;0.60;0.60;;;;;;;11.92;100.00;98423.94;5100250;28;20216;-69
2021/12/30 07:16:04;;;;;;;0.50;0.50;;;;;;;11.94;100.00;98432.63;5098986;28;20223;-70
2021/12/30 07:18:31;;;;;;;1.40;0.70;;;;;;;11.94;100.00;98435.25;5098873;28;20696;-69
2021/12/30 07:20:57;;;;;;;0.80;0.80;;;;;;;11.94;100.00;98440.56;5098946;28;20211;-70
2021/12/30 07:23:24;;;;;;;1.03;0.80;;;;;;;11.93;100.00;98436.22;5101799;28;20219;-70
2021/12/30 07:25:52;;;;;;;0.73;0.73;;;;;;;11.92;100.00;98445.13;5099126;28;20559;-69
2021/12/30 07:28:19;;;;;;;0.70;0.70;;;;;;;11.94;100.00;98451.16;5098975;28;20215;-69
2021/12/30 07:30:47;;;;;;;0.73;0.73;;;;;;;11.92;100.00;98448.59;5098511;28;20254;-69
2021/12/30 07:33:13;;;;;;;1.23;0.77;;;;;;;11.93;100.00;98449.47;5101554;28;20217;-69
2021/12/30 07:35:40;;;;;;;2.20;0.60;;;;;;;11.96;100.00;98447.44;5098624;28;20216;-70
2021/12/30 07:38:06;;;;;;;0.50;0.40;;;;;;;12.01;100.00;98447.13;5097156;28;20220;-69
2021/12/30 07:40:33;;;;;;;0.40;0.40;;;;;;;12.05;100.00;98453.91;5098499;28;20211;-68
2021/12/30 07:43:00;;;;;;;1.50;0.50;;;;;;;12.06;100.00;98458.25;5101183;28;20220;-69
2021/12/30 07:45:27;;;;;;;0.50;0.50;;;;;;;12.07;100.00;98460.81;5098754;28;20219;-68
2021/12/30 07:47:55;;;;;;;0.50;0.50;;;;;;;12.10;100.00;98467.69;5098596;28;20582;-69
2021/12/30 07:50:24;;;;;;;0.50;0.50;;;;;;;12.12;100.00;98471.06;5098503;28;20233;-68
2021/12/30 07:52:53;;;;;;;0.40;0.40;;;;;;;12.10;100.00;98471.16;5101045;28;20600;-68
2021/12/30 07:55:20;;;;;;;0.50;0.50;;;;;;;12.06;100.00;98467.06;5103776;28;20214;-68
2021/12/30 07:57:47;;;;;;;0.70;0.40;;;;;;;12.09;100.00;98463.31;5105549;28;20216;-68
2021/12/30 08:00:17;;;;;;;0.53;0.40;;;;;;;12.06;100.00;98468.84;5106692;28;20219;-68
2021/12/30 08:02:44;;;;;;;0.40;0.40;;;;;;;12.12;100.00;98468.41;5104725;28;20299;-68
2021/12/30 08:05:14;;;;;;;0.40;0.40;;;;;;;12.11;100.00;98458.78;5112768;28;20218;-68
2021/12/30 08:07:41;;;;;;;0.40;0.37;;;;;;;12.10;100.00;98459.75;5097627;28;20216;-69
2021/12/30 08:10:12;;;;;;;1.57;0.60;;;;;;;12.11;100.00;98466.72;5102175;28;20386;-69
2021/12/30 08:12:39;;;;;;;1.60;0.40;;;;;;;12.13;100.00;98464.81;5101797;28;20238;-69
2021/12/30 08:15:07;;;;;;;1.37;0.50;;;;;;;12.17;100.00;98466.31;5110747;28;20214;-69
2021/12/30 08:17:33;;;;;;;0.30;0.30;;;;;;;12.23;100.00;98477.31;5098492;28;20210;-69
2021/12/30 08:20:00;;;;;;;0.37;0.37;;;;;;;12.27;100.00;98472.63;5105827;28;20685;-69
2021/12/30 08:22:28;;;;;;;0.53;0.53;;;;;;;12.27;100.00;98477.94;5106098;28;20207;-70
2021/12/30 08:24:54;;;;;;;0.93;0.60;;;;;;;12.31;100.00;98484.72;5097723;28;20212;-70
2021/12/30 08:27:21;;;;;;;0.43;0.40;;;;;;;12.30;100.00;98485.69;5097794;28;20220;-70
2021/12/30 08:29:47;;;;;;;0.60;0.60;;;;;;;12.37;100.00;98484.28;5105974;28;20258;-70
2021/12/30 08:32:16;;;;;;;1.60;0.50;;;;;;;12.37;100.00;98485.16;5096978;28;20215;-70
2021/12/30 08:34:44;;;;;;;0.40;0.40;;;;;;;12.41;100.00;98485.78;5098680;28;20211;-70
2021/12/30 08:37:12;;;;;;;0.50;0.30;;;;;;;12.53;100.00;98474.31;5102018;28;20214;-70
2021/12/30 08:39:40;;;;;;;0.83;0.50;;;;;;;12.50;100.00;98477.16;5098294;28;20725;-70
2021/12/30 08:42:18;;;;;;;0.40;0.40;;;;;;;12.52;100.00;98473.44;5096199;28;20219;-70
2021/12/30 08:44:44;;;;;;;0.30;0.30;;;;;;;12.50;100.00;98482.47;5098245;28;20681;-71
2021/12/30 08:47:11;;;;;;;1.07;0.60;;;;;;;12.44;100.00;98485.53;5101254;28;20216;-70
2021/12/30 08:49:37;;;;;;;0.63;0.40;;;;;;;12.34;100.00;98489.81;5098016;28;20235;-71
2021/12/30 08:52:04;;;;;;;0.60;0.50;;;;;;;12.31;100.00;98484.72;5099254;28;20311;-71
2021/12/30 08:54:34;;;;;;;1.23;0.57;;;;;;;12.32;100.00;98491.72;5095429;28;20207;-71
2021/12/30 08:57:03;;;;;;;0.47;0.47;;;;;;;12.39;100.00;98492.97;5092941;28;20221;-70
2021/12/30 08:59:29;;;;;;;0.40;0.40;;;;;;;12.54;100.00;98497.19;5107722;28;20212;-70
2021/12/30 09:01:56;;;;;;;0.47;0.47;;;;;;;12.60;100.00;98496.75;5112006;28;20227;-70
2021/12/30 09:04:23;;;;;;;0.50;0.50;;;;;;;12.70;100.00;98503.09;5111909;28;20265;-71
2021/12/30 09:06:49;;;;;;;0.57;0.57;;;;;;;12.80;100.00;98496.16;5112557;28;20224;-73
2021/12/30 09:09:16;;;;;;;0.80;0.60;;;;;;;12.91;100.00;98498.91;5098908;28;20232;-71
2021/12/30 09:11:42;;;;;;;0.50;0.47;;;;;;;13.07;100.00;98500.34;5107740;28;20220;-70
2021/12/30 09:14:13;;;;;;;0.70;0.60;;;;;;;13.27;100.00;98505.03;5112595;28;20223;-71
2021/12/30 09:16:40;;;;;;;1.20;0.50;;;;;;;13.42;100.00;98500.38;5112407;28;20213;-70
2021/12/30 09:19:06;;;;;;;0.83;0.60;;;;;;;13.47;100.00;98492.94;5111652;28;20570;-71
2021/12/30 09:21:33;;;;;;;0.77;0.77;;;;;;;13.38;100.00;98490.97;5111992;28;20219;-72
2021/12/30 09:23:59;;;;;;;1.90;0.60;;;;;;;13.29;100.00;98481.88;5111899;28;20217;-71
2021/12/30 09:26:26;;;;;;;0.67;0.67;;;;;;;13.23;100.00;98482.34;5110800;28;20561;-71
2021/12/30 09:28:52;;;;;;;1.17;0.90;;;;;;;13.24;100.00;98488.47;5112255;28;20455;-71
2021/12/30 09:31:20;;;;;;;2.10;0.87;;;;;;;13.32;100.00;98491.44;5112046;28;20252;-72
2021/12/30 09:33:46;;;;;;;0.50;0.50;;;;;;;13.43;100.00;98510.03;5094910;28;20239;-72
2021/12/30 09:36:13;;;;;;;0.60;0.60;;;;;;;13.51;100.00;98513.00;5112611;28;20471;-71
2021/12/30 09:38:39;;;;;;;0.60;0.57;;;;;;;13.45;100.00;98510.78;5111929;28;20213;-72
2021/12/30 09:41:06;;;;;;;0.50;0.50;;;;;;;13.42;100.00;98514.53;5111061;28;20222;-71
2021/12/30 09:43:34;;;;;;;1.33;0.63;;;;;;;13.47;100.00;98516.81;5111931;28;20236;-72
2021/12/30 09:46:01;;;;;;;0.67;0.53;;;;;;;13.49;100.00;98514.91;5112931;28;20214;-71
2021/12/30 09:48:28;;;;;;;0.40;0.40;;;;;;;13.54;100.00;98523.38;5111110;28;20217;-71
2021/12/30 09:50:56;;;;;;;0.40;0.40;;;;;;;13.59;100.00;98513.25;5108320;28;20600;-71
2021/12/30 09:53:25;;;;;;;0.50;0.40;;;;;;;13.63;100.00;98518.22;5096649;28;20221;-72
2021/12/30 09:55:55;;;;;;;0.43;0.43;;;;;;;13.67;100.00;98518.81;5098053;28;20582;-72
2021/12/30 09:58:21;;;;;;;1.07;0.50;;;;;;;13.73;100.00;98510.38;5097033;28;20256;-72
2021/12/30 10:00:48;;;;;;;1.20;0.63;;;;;;;13.84;100.00;98513.09;5093666;28;20217;-73
2021/12/30 10:03:15;;;;;;;0.47;0.47;;;;;;;13.99;100.00;98519.91;5093354;28;20211;-73
2021/12/30 10:05:43;;;;;;;0.77;0.50;;;;;;;14.06;100.00;98529.91;5093965;28;20585;-74
2021/12/30 10:08:12;;;;;;;0.40;0.40;;;;;;;14.15;100.00;98525.72;5093416;28;20214;-73
2021/12/30 10:10:41;;;;;;;1.13;0.50;;;;;;;14.26;100.00;98521.31;5097025;28;20242;-75
2021/12/30 10:13:24;;;;;;;0.50;0.50;;;;;;;14.38;100.00;98528.34;5093383;28;20239;-73
2021/12/30 10:15:53;;;;;;;0.60;0.60;;;;;;;14.55;100.00;98522.50;5095163;28;20695;-72
2021/12/30 10:18:22;;;;;;;0.40;0.40;;;;;;;14.59;100.00;98531.94;5090967;28;20702;-72
2021/12/30 10:20:51;;;;;;;0.40;0.40;;;;;;;14.63;100.00;98543.19;5092934;28;20227;-72
2021/12/30 10:23:20;;;;;;;1.50;0.40;;;;;;;14.63;100.00;98544.06;5093825;28;20583;-72
2021/12/30 10:25:49;;;;;;;0.77;0.50;;;;;;;14.67;100.00;98544.66;5095486;28;20687;-72
2021/12/30 10:28:30;;;;;;;0.40;0.40;;;;;;;14.75;100.00;98550.22;5099080;28;20256;-73
2021/12/30 10:31:01;;;;;;;0.90;0.40;;;;;;;14.78;100.00;98555.31;5093086;28;20297;-73
2021/12/30 10:33:30;;;;;;;0.50;0.40;;;;;;;14.88;100.00;98548.25;5094092;28;20221;-73
2021/12/30 10:35:59;;;;;;;0.80;0.40;;;;;;;14.98;100.00;98554.53;5094412;28;20214;-73
2021/12/30 10:38:30;;;;;;;0.50;0.50;;;;;;;15.09;100.00;98554.53;5093524;28;20218;-73
2021/12/30 10:41:01;;;;;;;0.40;0.40;;;;;;;15.07;100.00;98559.97;5092162;28;20233;-73
2021/12/30 10:43:33;;;;;;;0.47;0.47;;;;;;;15.13;100.00;98553.31;5095834;28;20888;-72
2021/12/30 10:46:05;;;;;;;0.50;0.50;;;;;;;15.14;100.00;98555.84;5097268;28;20212;-73
2021/12/30 10:48:32;;;;;;;0.63;0.50;;;;;;;15.16;100.00;98553.91;5092305;28;20223;-72
2021/12/30 10:51:16;;;;;;;0.40;0.40;;;;;;;15.15;100.00;98560.19;5093094;28;20235;-72
2021/12/30 10:53:42;;;;;;;0.53;0.40;;;;;;;15.25;100.00;98557.63;5102419;28;20202;-75
2021/12/30 10:56:37;;;;;;;0.40;0.40;;;;;;;15.32;100.00;98564.16;5101028;28;20217;-74
2021/12/30 10:59:13;;;;;;;0.30;0.30;;;;;;;15.37;100.00;98556.66;5058065;28;20226;-75
2021/12/30 11:01:42;;;;;;;0.40;0.40;;;;;;;15.39;100.00;98555.56;5097740;28;20713;-73
2021/12/30 11:04:09;;;;;;;0.50;0.50;;;;;;;15.42;100.00;98550.00;5104830;28;20218;-73
2021/12/30 11:06:39;;;;;;;0.53;0.40;;;;;;;15.48;100.00;98544.19;5102573;28;20798;-73
2021/12/30 11:09:10;;;;;;;0.40;0.40;;;;;;;15.50;100.00;98554.69;5090983;28;20409;-73
2021/12/30 11:11:39;;;;;;;0.50;0.50;;;;;;;15.54;100.00;98556.13;5098708;28;20738;-74
2021/12/30 11:14:08;;;;;;;0.93;0.43;;;;;;;15.64;100.00;98549.91;5091581;28;20211;-71
2021/12/30 11:16:53;;;;;;;1.13;0.50;;;;;;;15.75;100.00;98543.69;5092632;28;20207;-71
2021/12/30 11:19:21;;;;;;;0.47;0.47;;;;;;;15.77;100.00;98555.09;5098998;28;20218;-72
2021/12/30 11:21:51;;;;;;;0.50;0.50;;;;;;;15.77;100.00;98550.59;5096359;28;20214;-71
2021/12/30 11:24:18;;;;;;;0.73;0.50;;;;;;;15.79;100.00;98556.66;5094851;28;20253;-72
2021/12/30 11:26:45;;;;;;;0.50;0.50;;;;;;;15.79;100.00;98554.00;5095361;28;20217;-72